Time,TemperatureF,DewpointF,PressureIn,WindDirection,WindDirectionDegrees,WindSpeedMPH,WindSpeedGustMPH,Humidity,HourlyPrecipIn,Conditions,Clouds,dailyrainin,SoftwareType,DateUTC
2013-06-30 01:00:00,85.0,39.0,30.00,WNW,286,2.0,6.0,19,0.00,,,-99.99,,2013-06-30 07:00:00,
2013-06-30 01:44:00,85.0,39.0,30.00,WNW,286,2.0,6.0,19,0.00,,,-99.99,,2013-06-30 07:44:00,
2013-06-30 01:53:00,85.0,39.0,30.00,WNW,286,2.0,6.0,19,0.00,,,-99.99,,2013-06-30 07:53:00,
2013-06-30 03:00:00,77.0,39.0,30.01,South,175,2.0,6.0,25,0.00,,,-99.99,,2013-06-30 09:00:00,
2013-06-30 03:43:00,77.0,39.0,30.01,South,175,2.0,6.0,25,0.00,,,-99.99,,2013-06-30 09:43:00,
2013-06-30 03:53:00,77.0,39.0,30.01,South,175,2.0,6.0,25,0.00,,,-99.99,,2013-06-30 09:53:00,
2013-06-30 04:00:00,77.0,39.0,30.01,South,176,1.0,5.0,25,0.00,,,-99.99,,2013-06-30 10:00:00,
2013-06-30 04:34:00,77.0,39.0,30.01,South,176,1.0,5.0,25,0.00,,,-99.99,,2013-06-30 10:34:00,
2013-06-30 04:43:00,77.0,39.0,30.01,South,176,1.0,5.0,25,0.00,,,-99.99,,2013-06-30 10:43:00,
2013-06-30 04:53:00,77.0,39.0,30.01,South,176,1.0,5.0,25,0.00,,,-99.99,,2013-06-30 10:53:00,
2013-06-30 05:00:00,75.0,40.0,30.02,SW,228,2.0,4.0,28,0.00,,,-99.99,,2013-06-30 11:00:00,
2013-06-30 05:43:00,75.0,40.0,30.02,SW,228,2.0,4.0,28,0.00,,,-99.99,,2013-06-30 11:43:00,
2013-06-30 05:53:00,75.0,40.0,30.02,SW,228,2.0,4.0,28,0.00,,,-99.99,,2013-06-30 11:53:00,
2013-06-30 06:00:00,73.0,40.0,30.04,SSE,154,2.0,5.0,30,0.00,,,-99.99,,2013-06-30 12:00:00,
2013-06-30 06:43:00,73.0,40.0,30.04,SSE,154,2.0,5.0,30,0.00,,,-99.99,,2013-06-30 12:43:00,
2013-06-30 06:52:00,73.0,40.0,30.04,SSE,154,2.0,5.0,30,0.00,,,-99.99,,2013-06-30 12:52:00,
2013-06-30 07:00:00,72.0,42.0,30.06,SE,127,1.0,4.0,33,0.00,,,-99.99,,2013-06-30 13:00:00,
2013-06-30 07:44:00,72.0,42.0,30.06,SE,127,1.0,4.0,33,0.00,,,-99.99,,2013-06-30 13:44:00,
2013-06-30 07:53:00,72.0,42.0,30.06,SE,127,1.0,4.0,33,0.00,,,-99.99,,2013-06-30 13:53:00,
2013-06-30 08:00:00,78.0,43.0,30.07,SE,126,2.0,5.0,28,0.00,,,-99.99,,2013-06-30 14:00:00,
2013-06-30 08:44:00,78.0,43.0,30.07,SE,126,2.0,5.0,28,0.00,,,-99.99,,2013-06-30 14:44:00,
2013-06-30 08:52:00,78.0,43.0,30.07,SE,126,2.0,5.0,28,0.00,,,-99.99,,2013-06-30 14:52:00,
2013-06-30 09:00:00,82.0,43.0,30.08,ENE,75,2.0,5.0,25,0.00,,,-99.99,,2013-06-30 15:00:00,
2013-06-30 09:44:00,82.0,43.0,30.08,ENE,75,2.0,5.0,25,0.00,,,-99.99,,2013-06-30 15:44:00,
2013-06-30 09:53:00,82.0,43.0,30.08,ENE,75,2.0,5.0,25,0.00,,,-99.99,,2013-06-30 15:53:00,
2013-06-30 10:00:00,86.0,41.0,30.08,North,350,2.0,5.0,20,0.00,,,-99.99,,2013-06-30 16:00:00,
2013-06-30 10:44:00,86.0,41.0,30.08,North,350,2.0,5.0,20,0.00,,,-99.99,,2013-06-30 16:44:00,
2013-06-30 10:53:00,86.0,41.0,30.08,North,350,2.0,5.0,20,0.00,,,-99.99,,2013-06-30 16:53:00,
2013-06-30 11:00:00,89.0,43.0,30.07,NNW,342,3.0,7.0,20,0.00,,,-99.99,,2013-06-30 17:00:00,
2013-06-30 11:34:00,89.0,43.0,30.07,NNW,342,3.0,7.0,20,0.00,,,-99.99,,2013-06-30 17:34:00,
2013-06-30 11:43:00,89.0,43.0,30.07,NNW,342,3.0,7.0,20,0.00,,,-99.99,,2013-06-30 17:43:00,
2013-06-30 11:52:00,89.0,43.0,30.07,NNW,342,3.0,7.0,20,0.00,,,-99.99,,2013-06-30 17:52:00,
2013-06-30 12:00:00,92.0,43.0,30.06,NNW,338,4.0,8.0,17,0.00,,,-99.99,,2013-06-30 18:00:00,
2013-06-30 12:43:00,92.0,43.0,30.06,NNW,338,4.0,8.0,17,0.00,,,-99.99,,2013-06-30 18:43:00,
2013-06-30 12:53:00,92.0,43.0,30.06,NNW,338,4.0,8.0,17,0.00,,,-99.99,,2013-06-30 18:53:00,
2013-06-30 13:00:00,95.0,41.0,30.04,NNW,331,4.0,8.0,15,0.00,,,-99.99,,2013-06-30 19:00:00,
2013-06-30 13:43:00,95.0,41.0,30.04,NNW,331,4.0,8.0,15,0.00,,,-99.99,,2013-06-30 19:43:00,
2013-06-30 13:53:00,95.0,41.0,30.04,NNW,331,4.0,8.0,15,0.00,,,-99.99,,2013-06-30 19:53:00,
2013-06-30 15:00:00,99.0,41.0,29.98,NW,304,6.0,11.0,13,0.00,,,-99.99,,2013-06-30 21:00:00,
2013-06-30 15:43:00,99.0,41.0,29.98,NW,304,6.0,11.0,13,0.00,,,-99.99,,2013-06-30 21:43:00,
2013-06-30 15:53:00,99.0,41.0,29.98,NW,304,6.0,11.0,13,0.00,,,-99.99,,2013-06-30 21:53:00,
2013-06-30 16:00:00,101.0,40.0,29.96,NW,320,6.0,13.0,12,0.00,,,-99.99,,2013-06-30 22:00:00,
2013-06-30 16:43:00,101.0,40.0,29.96,NW,320,6.0,13.0,12,0.00,,,-99.99,,2013-06-30 22:43:00,
2013-06-30 16:53:00,101.0,40.0,29.96,NW,320,6.0,13.0,12,0.00,,,-99.99,,2013-06-30 22:53:00,
2013-06-30 17:00:00,100.0,40.0,29.94,North,9,6.0,13.0,12,0.00,,,-99.99,,2013-06-30 23:00:00,
2013-06-30 17:44:00,100.0,40.0,29.94,North,9,6.0,13.0,12,0.00,,,-99.99,,2013-06-30 23:44:00,
2013-06-30 17:53:00,100.0,40.0,29.94,North,9,6.0,13.0,12,0.00,,,-99.99,,2013-06-30 23:53:00,
2013-06-30 18:00:00,101.0,39.0,29.92,North,1,7.0,14.0,12,0.00,,,-99.99,,2013-07-01 00:00:00,
2013-06-30 18:33:00,101.0,39.0,29.92,North,1,7.0,14.0,12,0.00,,,-99.99,,2013-07-01 00:33:00,
2013-06-30 18:42:00,101.0,39.0,29.92,North,1,7.0,14.0,12,0.00,,,-99.99,,2013-07-01 00:42:00,
2013-06-30 18:52:00,101.0,39.0,29.92,North,1,7.0,14.0,12,0.00,,,-99.99,,2013-07-01 00:52:00,
2013-06-30 19:00:00,99.0,39.0,29.91,North,354,6.0,13.0,12,0.00,,,-99.99,,2013-07-01 01:00:00,
2013-06-30 19:43:00,99.0,39.0,29.91,North,354,6.0,13.0,12,0.00,,,-99.99,,2013-07-01 01:43:00,
2013-06-30 19:52:00,99.0,39.0,29.91,North,354,6.0,13.0,12,0.00,,,-99.99,,2013-07-01 01:52:00,
2013-06-30 20:00:00,99.0,40.0,29.91,NW,324,6.0,11.0,13,0.00,,,-99.99,,2013-07-01 02:00:00,
2013-06-30 20:44:00,99.0,40.0,29.91,NW,324,6.0,11.0,13,0.00,,,-99.99,,2013-07-01 02:44:00,
2013-06-30 20:54:00,99.0,40.0,29.91,NW,324,6.0,11.0,13,0.00,,,-99.99,,2013-07-01 02:54:00,
2013-06-30 21:00:00,96.0,38.0,29.91,NW,304,4.0,9.0,13,0.00,,,-99.99,,2013-07-01 03:00:00,
2013-06-30 21:43:00,96.0,38.0,29.91,NW,304,4.0,9.0,13,0.00,,,-99.99,,2013-07-01 03:43:00,
2013-06-30 21:52:00,96.0,38.0,29.91,NW,304,4.0,9.0,13,0.00,,,-99.99,,2013-07-01 03:52:00,
2013-06-30 22:00:00,92.0,38.0,29.93,WNW,302,4.0,10.0,15,0.00,,,-99.99,,2013-07-01 04:00:00,
2013-06-30 22:32:00,92.0,38.0,29.93,WNW,302,4.0,10.0,15,0.00,,,-99.99,,2013-07-01 04:32:00,
2013-06-30 22:43:00,92.0,38.0,29.93,WNW,302,4.0,10.0,15,0.00,,,-99.99,,2013-07-01 04:43:00,
2013-06-30 22:53:00,92.0,38.0,29.93,WNW,302,4.0,10.0,15,0.00,,,-99.99,,2013-07-01 04:53:00,
2013-06-30 23:00:00,88.0,38.0,29.96,South,174,3.0,6.0,17,0.00,,,-99.99,,2013-07-01 05:00:00,
2013-06-30 23:42:00,88.0,38.0,29.96,South,174,3.0,6.0,17,0.00,,,-99.99,,2013-07-01 05:42:00,
2013-06-30 23:52:00,88.0,38.0,29.96,South,174,3.0,6.0,17,0.00,,,-99.99,,2013-07-01 05:52:00,